createdAt,value
2023-01-09T00:02:05.702Z,505.76
2023-01-09T00:07:12.815Z,506.82
2023-01-09T00:12:20.048Z,509.56
2023-01-09T00:17:27.238Z,510.24
2023-01-09T00:22:34.400Z,511.26
2023-01-09T00:27:41.610Z,511.84
2023-01-09T00:32:48.820Z,512.09
2023-01-09T00:37:56.011Z,509.26
2023-01-09T00:43:03.226Z,508.13
2023-01-09T00:48:10.439Z,507.51
2023-01-09T00:53:17.630Z,507.19
2023-01-09T00:58:24.826Z,507.31
2023-01-09T01:03:32.055Z,508.27
2023-01-09T01:08:39.259Z,509.22
2023-01-09T01:13:46.418Z,509.53
2023-01-09T01:18:53.662Z,510.30
2023-01-09T01:24:00.779Z,512.42
2023-01-09T01:29:08.071Z,510.93
2023-01-09T01:34:15.268Z,511.04
2023-01-09T01:39:22.417Z,510.31
2023-01-09T01:44:29.666Z,509.88
2023-01-09T01:49:36.886Z,509.91
2023-01-09T01:54:44.774Z,508.37
2023-01-09T01:59:52.811Z,508.15
2023-01-09T02:05:00.033Z,507.49
2023-01-09T02:10:07.234Z,507.40
2023-01-09T02:15:14.467Z,508.81
2023-01-09T02:20:21.785Z,510.37
2023-01-09T02:25:28.958Z,506.45
2023-01-09T02:30:36.164Z,508.08
2023-01-09T02:35:43.374Z,508.76
2023-01-09T02:40:50.563Z,508.62
2023-01-09T02:45:57.870Z,507.52
2023-01-09T02:51:05.067Z,506.23
2023-01-09T02:56:12.255Z,504.55
2023-01-09T03:01:19.593Z,503.08
2023-01-09T03:06:27.730Z,500.49
2023-01-09T03:11:33.922Z,498.28
2023-01-09T03:16:41.147Z,496.36
2023-01-09T03:21:48.432Z,496.85
2023-01-09T03:26:55.792Z,494.24
2023-01-09T03:32:03.011Z,494.49
2023-01-09T03:37:10.235Z,492.75
2023-01-09T03:42:17.433Z,490.78
2023-01-09T03:47:24.576Z,489.27
2023-01-09T03:52:31.789Z,487.18
2023-01-09T03:57:38.966Z,484.26
2023-01-09T04:02:47.162Z,482.43
2023-01-09T04:07:53.426Z,478.51
2023-01-09T04:13:00.664Z,475.52
2023-01-09T04:18:07.877Z,474.59
2023-01-09T04:23:15.149Z,475.39
2023-01-09T04:28:22.254Z,477.26
2023-01-09T04:33:29.471Z,477.95
2023-01-09T04:38:36.710Z,476.42
2023-01-09T04:43:43.869Z,473.62
2023-01-09T04:48:51.096Z,479.78
2023-01-09T04:53:58.313Z,475.44
2023-01-09T04:59:05.536Z,477.49
2023-01-09T05:04:12.955Z,476.07
2023-01-09T05:09:20.124Z,473.44
2023-01-09T05:14:27.314Z,473.42
2023-01-09T05:19:34.601Z,473.50
2023-01-09T05:24:41.712Z,473.11
2023-01-09T05:29:48.879Z,472.37
2023-01-09T05:34:56.116Z,471.69
2023-01-09T05:40:03.336Z,471.55
2023-01-09T05:45:10.530Z,470.52
2023-01-09T05:50:17.749Z,468.10
2023-01-09T05:55:25.110Z,467.67
2023-01-09T06:00:32.231Z,466.18
2023-01-09T06:05:39.465Z,463.77
2023-01-09T06:10:46.799Z,465.71
2023-01-09T06:15:54.067Z,464.42
2023-01-09T06:21:01.186Z,462.62
2023-01-09T06:26:08.430Z,463.08
2023-01-09T06:31:15.699Z,462.91
2023-01-09T06:36:22.919Z,462.78
2023-01-09T06:41:30.391Z,462.85
2023-01-09T06:46:37.525Z,461.88
2023-01-09T06:51:44.739Z,461.02
2023-01-09T06:56:51.932Z,460.61
2023-01-09T07:01:59.270Z,460.65
2023-01-09T07:07:06.336Z,459.81
2023-01-09T07:12:13.527Z,459.53
2023-01-09T07:17:20.745Z,459.54
2023-01-09T07:22:27.940Z,459.81
2023-01-09T07:27:35.176Z,458.86
2023-01-09T07:32:42.357Z,458.17
2023-01-09T07:37:49.592Z,458.99
2023-01-09T07:42:56.776Z,460.34
2023-01-09T07:48:03.947Z,459.34
2023-01-09T07:53:11.150Z,459.42
2023-01-09T07:58:18.477Z,459.89
2023-01-09T08:03:25.603Z,460.66
2023-01-09T08:08:32.849Z,460.59
2023-01-09T08:13:40.107Z,459.89
2023-01-09T08:18:47.307Z,459.54
2023-01-09T08:23:54.517Z,458.74
2023-01-09T08:29:01.726Z,460.34
2023-01-09T08:34:08.910Z,460.50
2023-01-09T08:39:16.117Z,460.89
2023-01-09T08:44:23.342Z,461.46
2023-01-09T08:49:30.471Z,460.69
2023-01-09T08:54:37.694Z,460.79
2023-01-09T08:59:44.931Z,461.23
2023-01-09T09:04:52.096Z,461.75
2023-01-09T09:09:59.298Z,462.10
2023-01-09T09:15:06.590Z,461.54
2023-01-09T09:20:13.783Z,462.70
2023-01-09T09:25:20.956Z,461.97
2023-01-09T09:30:28.168Z,462.62
2023-01-09T09:35:35.407Z,463.01
2023-01-09T09:40:42.583Z,463.22
2023-01-09T09:45:49.804Z,462.67
2023-01-09T09:50:56.987Z,464.03
2023-01-09T09:56:04.143Z,463.87
2023-01-09T10:01:11.388Z,463.84
2023-01-09T10:06:18.528Z,464.81
2023-01-09T10:11:25.762Z,464.13
2023-01-09T10:16:33.024Z,464.51
2023-01-09T10:21:40.206Z,465.51
2023-01-09T10:26:47.425Z,465.93
2023-01-09T10:31:54.686Z,465.13
2023-01-09T10:37:02.056Z,467.37
2023-01-09T10:42:09.155Z,466.27
2023-01-09T10:47:16.374Z,466.97
2023-01-09T10:52:23.552Z,467.46
2023-01-09T10:57:30.733Z,468.46
2023-01-09T11:02:37.948Z,469.14
2023-01-09T11:07:45.089Z,471.34
2023-01-09T11:12:52.276Z,469.15
2023-01-09T11:17:59.492Z,468.87
2023-01-09T11:23:06.661Z,470.32
2023-01-09T11:28:13.808Z,469.39
2023-01-09T11:33:21.010Z,469.82
2023-01-09T11:38:28.170Z,470.15
2023-01-09T11:43:35.457Z,469.86
2023-01-09T11:48:42.632Z,470.83
2023-01-09T11:53:49.798Z,470.12
2023-01-09T11:58:57.053Z,470.75
2023-01-09T12:04:04.264Z,470.10
2023-01-09T12:09:11.396Z,469.15
2023-01-09T12:14:18.613Z,469.85
2023-01-09T12:19:25.890Z,470.26
2023-01-09T12:24:33.078Z,471.47
2023-01-09T12:29:40.320Z,472.04
2023-01-09T12:34:47.514Z,471.69
2023-01-09T12:39:54.688Z,471.77
2023-01-09T12:45:01.970Z,470.26
2023-01-09T12:50:09.170Z,469.76
2023-01-09T12:55:16.347Z,470.60
2023-01-09T13:00:23.518Z,469.30
2023-01-09T13:05:30.806Z,467.17
2023-01-09T13:10:38.000Z,465.92
2023-01-09T13:15:51.401Z,464.90
2023-01-09T13:20:58.582Z,464.92
2023-01-09T13:26:05.745Z,464.51
2023-01-09T13:31:13.022Z,464.22
2023-01-09T13:36:20.316Z,462.53
2023-01-09T13:41:27.576Z,461.89
2023-01-09T13:46:34.786Z,461.54
2023-01-09T13:51:42.084Z,461.15
2023-01-09T13:56:49.226Z,461.88
2023-01-09T14:01:56.491Z,460.64
2023-01-09T14:07:03.716Z,460.10
2023-01-09T14:12:10.897Z,459.92
2023-01-09T14:17:18.129Z,460.57
2023-01-09T14:22:25.359Z,460.78
2023-01-09T14:27:32.475Z,459.67
2023-01-09T14:32:39.700Z,458.54
2023-01-09T14:37:46.964Z,458.07
2023-01-09T14:42:54.199Z,458.01
2023-01-09T14:48:01.425Z,457.57
2023-01-09T14:53:08.724Z,456.85
2023-01-09T14:58:15.933Z,455.35
2023-01-09T15:03:23.107Z,455.92
2023-01-09T15:08:30.307Z,454.10
2023-01-09T15:13:37.593Z,454.13
2023-01-09T15:18:44.773Z,454.24
2023-01-09T15:23:52.070Z,453.40
2023-01-09T15:28:59.179Z,453.33
2023-01-09T15:34:06.393Z,454.09
2023-01-09T15:39:13.649Z,453.24
2023-01-09T15:44:20.776Z,451.30
2023-01-09T15:49:28.021Z,451.57
2023-01-09T15:54:35.307Z,450.62
2023-01-09T15:59:42.458Z,449.64
2023-01-09T16:04:49.635Z,446.50
2023-01-09T16:09:56.917Z,445.49
2023-01-09T16:15:04.048Z,445.17
2023-01-09T16:20:11.297Z,444.24
2023-01-09T16:25:18.530Z,444.70
2023-01-09T16:30:25.693Z,444.81
2023-01-09T16:35:32.876Z,443.00
2023-01-09T16:40:40.152Z,443.02
2023-01-09T16:45:47.439Z,442.08
2023-01-09T16:50:54.642Z,442.57
2023-01-09T16:56:01.848Z,441.15
2023-01-09T17:01:09.055Z,441.07
2023-01-09T17:06:16.224Z,440.72
2023-01-09T17:11:23.565Z,441.07
2023-01-09T17:16:30.826Z,441.02
2023-01-09T17:21:37.962Z,439.72
2023-01-09T17:26:45.216Z,436.63
2023-01-09T17:31:52.575Z,435.39
2023-01-09T17:36:59.819Z,434.22
2023-01-09T17:42:07.151Z,434.66
2023-01-09T17:47:14.286Z,434.62
2023-01-09T17:52:21.439Z,434.38
2023-01-09T17:57:28.636Z,433.73
2023-01-09T18:02:35.921Z,433.83
2023-01-09T18:07:43.309Z,433.58
2023-01-09T18:12:50.646Z,432.81
2023-01-09T18:17:57.828Z,431.96
2023-01-09T18:23:05.017Z,431.69
2023-01-09T18:28:12.246Z,430.74
2023-01-09T18:33:19.588Z,430.41
2023-01-09T18:38:29.459Z,429.97
2023-01-09T18:43:34.011Z,430.20
2023-01-09T18:48:41.457Z,428.13
2023-01-09T18:53:48.688Z,426.91
2023-01-09T18:58:55.956Z,425.36
2023-01-09T19:04:03.158Z,424.26
2023-01-09T19:09:10.311Z,424.01
2023-01-09T19:14:17.825Z,424.32
2023-01-09T19:19:25.137Z,424.10
2023-01-09T19:24:32.331Z,423.41
2023-01-09T19:29:39.561Z,423.33
2023-01-09T19:34:46.783Z,423.44
2023-01-09T19:39:54.008Z,423.95
2023-01-09T19:45:02.600Z,422.07
2023-01-09T19:50:10.283Z,422.07
2023-01-09T19:55:17.689Z,420.70
2023-01-09T20:00:25.226Z,419.94
2023-01-09T20:05:32.940Z,418.84
2023-01-09T20:10:40.299Z,417.85
2023-01-09T20:15:47.522Z,416.57
2023-01-09T20:20:55.040Z,416.40
2023-01-09T20:26:02.661Z,417.68
2023-01-09T20:31:10.466Z,416.84
2023-01-09T20:36:17.801Z,415.86
2023-01-09T20:41:25.042Z,414.92
2023-01-09T20:46:32.266Z,415.24
2023-01-09T20:51:39.429Z,414.39
2023-01-09T20:56:46.668Z,413.81
2023-01-09T21:01:53.941Z,413.12
2023-01-09T21:07:01.148Z,412.99
2023-01-09T21:12:08.475Z,413.22
2023-01-09T21:17:15.704Z,412.30
2023-01-09T21:22:22.939Z,411.88
2023-01-09T21:27:30.160Z,412.14
2023-01-09T21:32:37.461Z,410.91
2023-01-09T21:37:44.662Z,410.85
2023-01-09T21:42:51.880Z,410.57
2023-01-09T21:47:59.074Z,410.08
2023-01-09T21:53:06.221Z,410.89
2023-01-09T21:58:13.379Z,409.39
2023-01-09T22:03:20.624Z,409.28
2023-01-09T22:08:27.799Z,409.24
2023-01-09T22:13:34.999Z,407.98
2023-01-09T22:18:42.311Z,408.51
2023-01-09T22:23:49.511Z,407.80
2023-01-09T22:28:56.702Z,408.23
2023-01-09T22:34:03.903Z,407.75
2023-01-09T22:39:11.114Z,407.49
2023-01-09T22:44:18.316Z,406.52
2023-01-09T22:49:29.956Z,406.99
2023-01-09T22:54:32.740Z,405.71
2023-01-09T22:59:39.949Z,406.14
2023-01-09T23:04:47.170Z,405.55
2023-01-09T23:09:54.292Z,405.56
2023-01-09T23:15:01.544Z,406.06
2023-01-09T23:20:08.776Z,404.02
2023-01-09T23:25:15.954Z,404.23
2023-01-09T23:30:23.142Z,403.86
2023-01-09T23:35:30.410Z,403.61
2023-01-09T23:40:37.568Z,403.24
2023-01-09T23:45:44.880Z,404.00
2023-01-09T23:50:51.969Z,402.91
2023-01-09T23:55:59.135Z,401.98
